ولاية سوق أهراس, الجزائر

10:54 AM CET on دسمبر 21, 2014 (GMT +0100)
Cheikh Larbi Tebessi | Change Station
CLOSE
Current Station
Airport
Location: Tebessa,
Elevation: 2661 ft
Nearby Weather Stations

Elev 2661 ft 35.43 °N, 8.12 °E | Updated 24 minutes ago

Scattered Clouds
غيوم متفرقة
52 °F
Feels Like 52 °F
N
12
ريح متغير ريح from WNW

هذا اليوم
High -- | Low -- °F
--% Chance of Precip.
Yesterday
High -- | Low -- °F
Precip. -- في
7:35 AM 5:16 PM
الهلال الأخير, 1% visible
الضغط 30.45 في
وضوح الرؤية 6.2 أميال
سحابات غيوم متفرقة 3300 ft
نقطة الندى 43 °F
الرطوبة 71%
Rainfall 0.00 في
عمق الثلج Not available.
الأشعة فوق البنفسجية 2 out of 12
Pollen Not available.
جودة الهواء Not available.
Flu Activity Not available.
METAR DABS 210930Z 30010KT 9999 SCT033 11/06 Q1031

More Conditions Fewer Conditions

الضغط 30.45 في
وضوح الرؤية 6.2 أميال
سحابات غيوم متفرقة 3300 ft
نقطة الندى 43 °F
الرطوبة 71%
Rainfall 0.00 في
عمق الثلج Not available.
الأشعة فوق البنفسجية 2 out of 12
Pollen Not available.
جودة الهواء Not available.
Flu Activity Not available.
METAR DABS 210930Z 30010KT 9999 SCT033 11/06 Q1031

More Conditions Fewer Conditions

10-Day Weather Forecast

Almanac

علم الفلك

Dec. 21, 2014 Rise Set
Actual Time
Civil Twilight
Nautical Twilight
Astronomical Twilight
قمر
Length Of Visible Light
طول الیوم
Tomorrow will be .
, % of the Moon is Illuminated

Today's Extremes

Country Highs Country Lows

Community

WunderPhotos

Upload Photos

1,779,364 photos uploaded!

WunderBlogs® & News

Nearby

جودة الهواء

  جودة الهواء AQ Index Pollutant
Not available.

عمق الثلج

Station Depth Elevation

Earthquake Activity

City Distance Mag. Time & Date
Minimum magnitude displayed is 2.5.

Coastal Water Temperatures

مكان درجات الحرارة

Nearby Weather Stations